Time;durP1;ratioP1;P1;durP2;ratioP2;P2;SDS_P1;SDS_P2;PMS_P1;PMS_P2;Temp;Humidity;BMP_temperature;BMP_pressure;BME280_temperature;BME280_humidity;BME280_pressure;Samples;Min_cycle;Max_cycle;Signal;HPM_P1;HPM_P2
2022/06/25 00:02:13;;;;;;;5.00;4.50;;;26.80;66.20;;;;;;4993176;28;20485;-82
2022/06/25 00:07:29;;;;;;;6.13;2.07;;;26.80;66.10;;;;;;4993250;28;20460;-79
2022/06/25 00:09:57;;;;;;;3.17;2.87;;;26.80;66.10;;;;;;4993789;28;20547;-82
2022/06/25 00:12:34;;;;;;;2.70;1.60;;;26.80;66.10;;;;;;4994203;28;20469;-80
2022/06/25 00:15:04;;;;;;;3.37;1.60;;;26.80;66.30;;;;;;5004814;28;20472;-80
2022/06/25 00:17:32;;;;;;;2.40;1.30;;;26.80;66.10;;;;;;4989745;28;20483;-80
2022/06/25 00:20:05;;;;;;;3.53;2.10;;;26.80;66.00;;;;;;5002969;28;20458;-80
2022/06/25 00:22:33;;;;;;;2.33;1.70;;;26.80;66.10;;;;;;5006904;28;20475;-81
2022/06/25 00:25:01;;;;;;;1.70;1.50;;;26.80;66.00;;;;;;4992465;28;20504;-79
2022/06/25 00:27:30;;;;;;;2.40;2.20;;;26.80;66.00;;;;;;4993766;28;20461;-80
2022/06/25 00:29:59;;;;;;;2.50;1.93;;;26.80;66.00;;;;;;4994121;28;20500;-80
2022/06/25 00:32:27;;;;;;;2.77;1.60;;;26.80;66.20;;;;;;4995943;28;20460;-80
2022/06/25 00:34:55;;;;;;;4.13;1.13;;;26.80;66.00;;;;;;4993267;28;20520;-79
2022/06/25 00:37:25;;;;;;;2.43;1.50;;;26.80;66.00;;;;;;4995444;28;20463;-80
2022/06/25 00:39:54;;;;;;;2.20;1.77;;;26.70;66.00;;;;;;4993776;28;20456;-81
2022/06/25 00:42:22;;;;;;;4.40;1.40;;;26.70;66.20;;;;;;4994468;28;20526;-79
2022/06/25 00:44:52;;;;;;;3.90;1.93;;;26.80;66.00;;;;;;4992305;28;20461;-79
2022/06/25 00:47:20;;;;;;;2.50;2.30;;;26.70;65.90;;;;;;4994786;28;20514;-80
2022/06/25 00:49:48;;;;;;;3.30;3.00;;;26.70;66.00;;;;;;4986467;28;20558;-79
2022/06/25 00:52:20;;;;;;;3.93;3.63;;;26.70;65.90;;;;;;4989134;28;20464;-79
2022/06/25 00:54:53;;;;;;;2.10;1.90;;;26.70;65.90;;;;;;4993446;28;20882;-79
2022/06/25 00:57:24;;;;;;;2.50;2.30;;;26.70;65.90;;;;;;4991856;28;20523;-80
2022/06/25 00:59:54;;;;;;;3.40;1.77;;;26.70;65.90;;;;;;4993096;28;20465;-79
2022/06/25 01:02:23;;;;;;;2.93;1.50;;;26.70;66.00;;;;;;4999677;28;20479;-79
2022/06/25 01:04:51;;;;;;;3.03;1.33;;;26.70;65.90;;;;;;4988490;28;20452;-79
2022/06/25 01:07:20;;;;;;;2.93;1.53;;;26.70;65.90;;;;;;4993608;28;21029;-79
2022/06/25 01:09:52;;;;;;;5.03;3.37;;;26.70;65.90;;;;;;4991458;28;20535;-81
2022/06/25 01:12:20;;;;;;;2.10;1.40;;;26.70;65.90;;;;;;4994054;28;20455;-80
2022/06/25 01:15:01;;;;;;;3.50;2.90;;;26.70;65.90;;;;;;4993189;28;21003;-81
2022/06/25 01:17:29;;;;;;;4.73;3.27;;;26.70;65.90;;;;;;5005274;28;20511;-79
2022/06/25 01:19:59;;;;;;;6.10;4.07;;;26.70;65.90;;;;;;4993384;28;20551;-82
2022/06/25 01:22:28;;;;;;;4.17;2.17;;;26.70;65.90;;;;;;5009683;28;20477;-79
2022/06/25 01:24:57;;;;;;;5.30;3.20;;;26.70;65.90;;;;;;4992360;28;20959;-79
2022/06/25 01:27:25;;;;;;;3.50;2.47;;;26.70;65.90;;;;;;4994669;28;20476;-80
2022/06/25 01:29:53;;;;;;;2.60;1.50;;;26.70;65.90;;;;;;4994324;28;20467;-79
2022/06/25 01:32:21;;;;;;;2.67;2.40;;;26.70;65.70;;;;;;5008186;28;21181;-78
2022/06/25 01:34:50;;;;;;;2.20;1.90;;;26.70;65.90;;;;;;4993353;28;20472;-78
2022/06/25 01:37:18;;;;;;;1.20;1.00;;;26.70;65.70;;;;;;4993006;28;20444;-79
2022/06/25 01:39:51;;;;;;;3.73;1.47;;;26.70;65.70;;;;;;4993580;28;20501;-79
2022/06/25 01:45:08;;;;;;;2.50;1.80;;;26.70;65.70;;;;;;4988558;28;20515;-79
2022/06/25 01:47:36;;;;;;;2.30;2.10;;;26.60;65.80;;;;;;4992255;28;20834;-79
2022/06/25 01:50:06;;;;;;;3.20;2.20;;;26.70;65.70;;;;;;5006881;28;20587;-78
2022/06/25 01:52:34;;;;;;;2.10;1.50;;;26.60;65.70;;;;;;4992778;28;20461;-78
2022/06/25 01:55:05;;;;;;;4.60;2.90;;;26.60;65.70;;;;;;4985228;28;20943;-80
2022/06/25 01:57:36;;;;;;;3.40;3.10;;;26.60;65.70;;;;;;4991288;28;20514;-79
2022/06/25 02:00:07;;;;;;;4.13;2.30;;;26.60;65.70;;;;;;5006891;28;20571;-78
2022/06/25 02:02:41;;;;;;;3.40;3.10;;;26.60;65.60;;;;;;4992562;28;20468;-78
2022/06/25 02:05:11;;;;;;;3.23;2.73;;;26.60;65.60;;;;;;5023991;28;20511;-78
2022/06/25 02:07:40;;;;;;;2.90;2.00;;;26.60;65.70;;;;;;5008474;28;20504;-81
2022/06/25 02:10:11;;;;;;;3.20;2.90;;;26.60;65.60;;;;;;4990232;28;20465;-80
2022/06/25 02:12:39;;;;;;;2.87;2.57;;;26.60;65.50;;;;;;5023946;28;20482;-79
2022/06/25 02:15:08;;;;;;;2.93;2.40;;;26.60;65.70;;;;;;4997425;28;20539;-78
2022/06/25 02:17:37;;;;;;;3.13;2.60;;;26.60;65.50;;;;;;4993378;28;20583;-78
2022/06/25 02:20:06;;;;;;;2.60;2.40;;;26.60;65.40;;;;;;4998206;28;20460;-79
2022/06/25 02:22:36;;;;;;;2.70;2.40;;;26.60;65.40;;;;;;5024447;28;20512;-79
2022/06/25 02:25:05;;;;;;;3.27;2.73;;;26.60;65.40;;;;;;4997754;28;20511;-80
2022/06/25 02:27:35;;;;;;;2.93;2.63;;;26.60;65.30;;;;;;4995191;28;20452;-79
2022/06/25 02:30:04;;;;;;;3.03;2.83;;;26.50;65.40;;;;;;4995547;28;20461;-79
2022/06/25 02:32:33;;;;;;;3.73;2.83;;;26.50;65.20;;;;;;4995404;28;20463;-80
2022/06/25 02:35:03;;;;;;;2.80;2.60;;;26.50;65.30;;;;;;4997344;28;20472;-79
2022/06/25 02:37:31;;;;;;;2.70;2.50;;;26.50;65.20;;;;;;5028062;28;20961;-79
2022/06/25 02:40:00;;;;;;;3.43;2.63;;;26.50;65.20;;;;;;4992353;28;20969;-78
2022/06/25 02:42:35;;;;;;;3.03;1.90;;;26.50;65.20;;;;;;4989157;28;20472;-80
2022/06/25 02:45:07;;;;;;;3.70;2.83;;;26.50;65.30;;;;;;5011421;28;20473;-80
2022/06/25 02:47:37;;;;;;;3.03;2.27;;;26.50;65.20;;;;;;5028127;28;20465;-80
2022/06/25 02:50:11;;;;;;;3.93;2.57;;;26.50;65.20;;;;;;5025399;28;20495;-79
2022/06/25 02:52:41;;;;;;;4.73;3.03;;;26.50;65.10;;;;;;4994689;28;20579;-80
2022/06/25 02:55:14;;;;;;;2.80;2.40;;;26.40;65.20;;;;;;4996623;28;20525;-79
2022/06/25 03:00:40;;;;;;;3.23;2.40;;;26.40;65.10;;;;;;5011666;28;20452;-79
2022/06/25 03:03:09;;;;;;;2.70;2.50;;;26.40;65.00;;;;;;5024105;28;20477;-79
2022/06/25 03:05:39;;;;;;;3.40;2.20;;;26.40;65.00;;;;;;4995517;28;20621;-82
2022/06/25 03:08:09;;;;;;;2.53;2.33;;;26.40;65.00;;;;;;5003352;28;20526;-79
2022/06/25 03:10:37;;;;;;;4.13;2.73;;;26.40;65.00;;;;;;5006190;28;20550;-78
2022/06/25 03:13:07;;;;;;;3.20;1.83;;;26.40;65.00;;;;;;5011431;28;20473;-79
2022/06/25 03:15:36;;;;;;;3.67;2.70;;;26.40;65.00;;;;;;4994713;28;20471;-80
2022/06/25 03:18:05;;;;;;;3.70;3.03;;;26.40;64.90;;;;;;5027445;28;20465;-79
2022/06/25 03:21:08;;;;;;;3.63;2.73;;;26.40;64.90;;;;;;4996058;28;20473;-80
2022/06/25 03:23:38;;;;;;;4.00;3.60;;;26.40;64.90;;;;;;4995184;28;20494;-80
2022/06/25 03:26:06;;;;;;;3.20;2.90;;;26.40;64.80;;;;;;4993816;28;20457;-82
2022/06/25 03:28:36;;;;;;;3.83;3.23;;;26.30;64.90;;;;;;5008509;28;20471;-80
2022/06/25 03:31:09;;;;;;;2.97;2.50;;;26.40;64.90;;;;;;4988972;28;20563;-80
2022/06/25 03:33:38;;;;;;;3.30;2.70;;;26.30;64.90;;;;;;5006774;28;20879;-79
2022/06/25 03:36:15;;;;;;;5.10;2.10;;;26.30;64.80;;;;;;4993769;28;20467;-85
2022/06/25 03:38:45;;;;;;;2.60;1.93;;;26.30;64.90;;;;;;4994659;28;20519;-79
2022/06/25 03:44:20;;;;;;;6.17;5.53;;;26.30;64.80;;;;;;4992408;28;20517;-79
2022/06/25 03:46:53;;;;;;;4.17;3.20;;;26.30;64.80;;;;;;4993809;28;20469;-81
2022/06/25 03:49:22;;;;;;;7.67;2.53;;;26.30;64.70;;;;;;4993473;28;20491;-79
2022/06/25 03:51:59;;;;;;;2.80;2.60;;;26.30;64.70;;;;;;4993892;28;20463;-80
2022/06/25 03:54:28;;;;;;;4.17;3.13;;;26.30;64.70;;;;;;5026267;28;20464;-82
2022/06/25 03:56:56;;;;;;;7.03;2.70;;;26.30;64.60;;;;;;4993695;28;20452;-79
2022/06/25 03:59:35;;;;;;;4.23;2.37;;;26.30;64.50;;;;;;5008797;28;21227;-79
2022/06/25 04:02:19;;;;;;;3.30;2.07;;;26.30;64.60;;;;;;4996619;28;20474;-79
2022/06/25 04:05:10;;;;;;;9.03;2.23;;;26.30;64.60;;;;;;4986542;28;21001;-79
2022/06/25 04:07:38;;;;;;;3.60;1.43;;;26.30;64.60;;;;;;5008787;28;20465;-82
2022/06/25 04:10:09;;;;;;;2.43;2.20;;;26.30;64.60;;;;;;4995775;28;20476;-79
2022/06/25 04:12:37;;;;;;;4.40;2.73;;;26.30;64.50;;;;;;4992834;28;20455;-79
2022/06/25 04:15:08;;;;;;;4.97;2.50;;;26.30;64.50;;;;;;4993418;28;20479;-83
2022/06/25 04:17:36;;;;;;;4.07;2.13;;;26.30;64.50;;;;;;4987917;28;20483;-80
2022/06/25 04:20:06;;;;;;;2.67;1.67;;;26.30;64.60;;;;;;5024681;28;20787;-80
2022/06/25 04:22:34;;;;;;;3.50;2.57;;;26.30;64.60;;;;;;5003875;28;20467;-79
2022/06/25 04:25:04;;;;;;;4.57;1.93;;;26.30;64.50;;;;;;5019059;28;20528;-79
2022/06/25 04:30:20;;;;;;;3.50;1.80;;;26.30;64.50;;;;;;5020136;28;20897;-80
2022/06/25 04:32:50;;;;;;;3.10;2.10;;;26.30;64.50;;;;;;5008216;28;20578;-79
2022/06/25 04:35:23;;;;;;;6.67;1.70;;;26.30;64.50;;;;;;5026136;28;20469;-79
2022/06/25 04:37:53;;;;;;;5.57;2.33;;;26.40;64.50;;;;;;4991510;28;20492;-79
2022/06/25 04:40:21;;;;;;;3.90;2.33;;;26.40;64.50;;;;;;5009385;28;20487;-79
2022/06/25 04:42:51;;;;;;;3.07;2.03;;;26.30;64.50;;;;;;4991482;28;20463;-80
2022/06/25 04:45:21;;;;;;;5.33;2.27;;;26.40;64.50;;;;;;4992269;28;20480;-79
2022/06/25 04:48:02;;;;;;;3.40;3.10;;;26.40;64.50;;;;;;4991014;28;20472;-80
2022/06/25 04:50:53;;;;;;;3.03;1.60;;;26.40;64.50;;;;;;5007806;28;20938;-79
2022/06/25 04:53:21;;;;;;;6.00;2.97;;;26.40;64.40;;;;;;4989899;28;20465;-80
2022/06/25 04:55:50;;;;;;;6.20;4.07;;;26.40;64.50;;;;;;5009262;28;20526;-79
2022/06/25 04:58:18;;;;;;;4.37;3.97;;;26.40;64.50;;;;;;4992141;28;20467;-80
2022/06/25 05:01:10;;;;;;;4.27;2.93;;;26.40;64.60;;;;;;4994056;28;20812;-82
2022/06/25 05:03:39;;;;;;;3.40;3.07;;;26.40;64.50;;;;;;4997285;28;20463;-78
2022/06/25 05:06:10;;;;;;;5.37;4.77;;;26.40;64.50;;;;;;4992464;28;20485;-80
2022/06/25 05:08:38;;;;;;;5.50;4.37;;;26.40;64.40;;;;;;4991611;28;20470;-79
2022/06/25 05:11:07;;;;;;;2.53;1.43;;;26.40;64.50;;;;;;5008602;28;20460;-80
2022/06/25 05:13:36;;;;;;;7.87;5.60;;;26.40;64.50;;;;;;4989793;28;20563;-79
2022/06/25 05:16:07;;;;;;;7.20;6.47;;;26.40;64.50;;;;;;4997636;28;20471;-79
2022/06/25 05:18:36;;;;;;;3.83;2.13;;;26.40;64.60;;;;;;4988657;28;20455;-79
2022/06/25 05:21:08;;;;;;;4.13;1.87;;;26.50;64.50;;;;;;5003796;28;20466;-82
2022/06/25 05:23:42;;;;;;;3.50;2.80;;;26.40;64.50;;;;;;4997503;28;20476;-79
2022/06/25 05:26:10;;;;;;;3.80;3.50;;;26.50;64.50;;;;;;5024627;28;20484;-80
2022/06/25 05:28:38;;;;;;;7.40;4.30;;;26.50;64.50;;;;;;4993386;28;20494;-80
2022/06/25 05:31:07;;;;;;;4.90;4.10;;;26.50;64.50;;;;;;5007575;28;20488;-81
2022/06/25 05:33:36;;;;;;;5.90;3.50;;;26.50;64.50;;;;;;5006480;28;20964;-79
2022/06/25 05:36:08;;;;;;;2.90;2.30;;;26.50;64.60;;;;;;4991269;28;20480;-79
2022/06/25 05:38:36;;;;;;;4.50;2.70;;;26.50;64.50;;;;;;5006097;28;20464;-79
2022/06/25 05:41:09;;;;;;;5.40;3.27;;;26.50;64.60;;;;;;5023016;28;20527;-80
2022/06/25 05:43:37;;;;;;;4.90;3.93;;;26.50;64.50;;;;;;4991055;28;20508;-80
2022/06/25 05:46:08;;;;;;;4.03;2.90;;;26.50;64.50;;;;;;4987388;28;20482;-79
2022/06/25 05:48:38;;;;;;;4.20;3.50;;;26.50;64.50;;;;;;4991483;28;21082;-80
2022/06/25 05:51:06;;;;;;;4.50;4.10;;;26.50;64.70;;;;;;4993441;28;20448;-79
2022/06/25 05:53:35;;;;;;;3.67;3.37;;;26.50;64.40;;;;;;4987091;28;20522;-80
2022/06/25 05:56:10;;;;;;;4.03;3.30;;;26.50;64.40;;;;;;4989136;28;20460;-78
2022/06/25 05:58:38;;;;;;;4.57;4.10;;;26.50;64.70;;;;;;4993119;28;21009;-82
2022/06/25 06:01:06;;;;;;;4.00;3.60;;;26.50;64.70;;;;;;4991695;28;20503;-79
2022/06/25 06:03:35;;;;;;;4.47;4.07;;;26.60;64.40;;;;;;4991536;28;20439;-79
2022/06/25 06:06:08;;;;;;;4.33;3.60;;;26.60;64.50;;;;;;4991306;28;20520;-79
2022/06/25 06:08:36;;;;;;;3.90;3.60;;;26.50;64.50;;;;;;4992833;28;20519;-79
2022/06/25 06:11:07;;;;;;;3.93;3.47;;;26.50;64.50;;;;;;4995049;28;20557;-80
2022/06/25 06:13:35;;;;;;;3.63;3.33;;;26.60;64.50;;;;;;4993350;28;20456;-82
2022/06/25 06:16:06;;;;;;;3.60;3.30;;;26.60;64.30;;;;;;4995685;28;20970;-79
2022/06/25 06:18:34;;;;;;;3.67;3.37;;;26.60;64.30;;;;;;4993074;28;20478;-78
2022/06/25 06:21:06;;;;;;;4.37;3.90;;;26.60;64.30;;;;;;4994098;28;20479;-79
2022/06/25 06:23:42;;;;;;;3.90;3.50;;;26.60;64.40;;;;;;4988716;28;20454;-81
2022/06/25 06:26:10;;;;;;;5.60;4.23;;;26.60;64.50;;;;;;4994134;28;20539;-80
2022/06/25 06:28:38;;;;;;;6.00;3.93;;;26.60;64.50;;;;;;4990161;28;20538;-84
2022/06/25 06:31:10;;;;;;;4.83;4.33;;;26.60;64.40;;;;;;4988564;28;20531;-80
2022/06/25 06:33:38;;;;;;;4.77;4.07;;;26.60;64.50;;;;;;5025678;28;20492;-80
2022/06/25 06:36:07;;;;;;;4.93;4.00;;;26.60;64.40;;;;;;4991084;28;20453;-78
2022/06/25 06:38:35;;;;;;;3.87;3.57;;;26.60;64.60;;;;;;4992672;28;20510;-79
2022/06/25 06:41:07;;;;;;;4.67;4.27;;;26.60;64.70;;;;;;4993041;28;20465;-80
2022/06/25 06:43:36;;;;;;;5.23;4.50;;;26.60;64.60;;;;;;4993355;28;20457;-78
2022/06/25 06:46:07;;;;;;;4.60;4.10;;;26.70;64.50;;;;;;4991961;28;20480;-79
2022/06/25 06:48:36;;;;;;;3.53;3.23;;;26.70;64.60;;;;;;4993889;28;20908;-78
2022/06/25 06:51:07;;;;;;;4.17;3.87;;;26.70;64.40;;;;;;4994224;28;20527;-78
2022/06/25 06:53:36;;;;;;;4.60;4.30;;;26.70;64.20;;;;;;4989051;28;20445;-78
2022/06/25 06:56:08;;;;;;;4.50;4.10;;;26.70;64.50;;;;;;4993202;28;20515;-78
2022/06/25 06:58:37;;;;;;;4.60;4.20;;;26.70;64.30;;;;;;4979660;28;20872;-78
2022/06/25 07:01:06;;;;;;;3.90;3.60;;;26.70;64.30;;;;;;4978555;28;20492;-79
2022/06/25 07:03:34;;;;;;;4.20;3.90;;;26.70;64.30;;;;;;4984775;28;20499;-79
2022/06/25 07:06:04;;;;;;;4.07;3.77;;;26.70;64.60;;;;;;4984503;28;20583;-78
2022/06/25 07:08:33;;;;;;;4.50;4.10;;;26.70;64.30;;;;;;4993219;28;20580;-80
2022/06/25 07:11:01;;;;;;;4.30;3.90;;;26.70;64.30;;;;;;4989346;28;21208;-79
2022/06/25 07:13:33;;;;;;;5.23;4.13;;;26.70;64.40;;;;;;4986280;28;20461;-79
2022/06/25 07:16:04;;;;;;;4.30;3.97;;;26.70;64.50;;;;;;4986571;28;20486;-79
2022/06/25 07:18:33;;;;;;;5.00;3.80;;;26.70;64.50;;;;;;4993018;28;20848;-79
2022/06/25 07:21:01;;;;;;;4.47;4.07;;;26.70;64.60;;;;;;4992840;28;20468;-78
2022/06/25 07:23:31;;;;;;;4.67;4.27;;;26.70;64.50;;;;;;4989847;28;20544;-79
2022/06/25 07:26:00;;;;;;;3.93;3.53;;;26.70;64.60;;;;;;4988280;28;20812;-77
2022/06/25 07:28:34;;;;;;;6.80;4.20;;;26.70;64.40;;;;;;5023854;28;20534;-82
2022/06/25 07:31:05;;;;;;;4.90;4.40;;;26.70;64.60;;;;;;4984506;28;20588;-79
2022/06/25 07:33:34;;;;;;;6.53;4.47;;;26.70;64.50;;;;;;4987376;28;20531;-79
2022/06/25 07:36:05;;;;;;;9.93;5.20;;;26.70;64.60;;;;;;4988128;28;20518;-79
2022/06/25 07:38:33;;;;;;;4.50;4.20;;;26.70;64.70;;;;;;4988353;28;20464;-80
2022/06/25 07:41:02;;;;;;;4.10;3.70;;;26.80;64.60;;;;;;4992520;28;20859;-78
2022/06/25 07:43:34;;;;;;;4.37;3.90;;;26.80;64.60;;;;;;4993653;28;20823;-78
2022/06/25 07:46:09;;;;;;;4.63;4.13;;;26.80;64.50;;;;;;4988293;28;20515;-78
2022/06/25 07:48:38;;;;;;;4.57;4.17;;;26.80;64.70;;;;;;4996128;28;20526;-78
2022/06/25 07:53:55;;;;;;;4.47;3.70;;;26.80;64.50;;;;;;4980407;28;20462;-78
2022/06/25 07:56:23;;;;;;;4.93;4.53;;;26.80;64.50;;;;;;4982670;28;20510;-79
2022/06/25 07:58:53;;;;;;;4.00;3.70;;;26.80;64.90;;;;;;4979469;28;20920;-80
2022/06/25 08:01:22;;;;;;;5.60;4.20;;;26.80;64.60;;;;;;4992167;28;20952;-80
2022/06/25 08:03:50;;;;;;;5.03;4.63;;;26.90;64.50;;;;;;4988705;28;20967;-77
2022/06/25 08:06:18;;;;;;;5.93;4.27;;;26.90;64.50;;;;;;4993032;28;20488;-78
2022/06/25 08:08:47;;;;;;;10.17;4.10;;;26.90;64.40;;;;;;4991443;28;20540;-83
2022/06/25 08:11:15;;;;;;;4.80;4.27;;;26.90;64.30;;;;;;4982690;28;20500;-84
2022/06/25 08:13:43;;;;;;;4.37;4.07;;;26.90;64.20;;;;;;4983580;28;20464;-81
2022/06/25 08:16:13;;;;;;;4.93;4.23;;;26.90;64.10;;;;;;4991850;28;20469;-79
2022/06/25 08:18:41;;;;;;;6.60;4.00;;;26.90;64.10;;;;;;4990003;28;20828;-79
2022/06/25 08:21:09;;;;;;;6.93;4.30;;;26.90;64.10;;;;;;4990851;28;20459;-79
2022/06/25 08:23:37;;;;;;;5.23;4.83;;;26.90;64.00;;;;;;4989198;28;20472;-82
2022/06/25 08:26:09;;;;;;;4.70;3.77;;;26.70;63.30;;;;;;4992941;28;20909;-80
2022/06/25 08:28:37;;;;;;;3.87;3.57;;;26.60;63.80;;;;;;4992388;28;20500;-79
2022/06/25 08:31:08;;;;;;;6.90;4.10;;;26.50;64.60;;;;;;4985301;28;20493;-80
2022/06/25 08:33:38;;;;;;;4.83;3.90;;;26.50;64.90;;;;;;4990666;28;20461;-79
2022/06/25 08:36:06;;;;;;;4.47;4.17;;;26.60;65.40;;;;;;4992777;28;20845;-80
2022/06/25 08:38:34;;;;;;;4.60;3.37;;;26.60;64.40;;;;;;4990582;28;20501;-80
2022/06/25 08:41:07;;;;;;;3.63;3.33;;;26.60;63.10;;;;;;4989763;28;20524;-80
2022/06/25 08:43:36;;;;;;;4.13;3.73;;;26.40;61.80;;;;;;4987418;28;20463;-81
2022/06/25 08:46:08;;;;;;;5.27;3.20;;;26.30;64.50;;;;;;4987244;28;20534;-81
2022/06/25 08:48:38;;;;;;;3.43;3.13;;;26.20;64.50;;;;;;4989483;28;20490;-80
2022/06/25 08:51:08;;;;;;;4.47;3.07;;;26.20;64.50;;;;;;4990452;28;20463;-82
2022/06/25 08:53:36;;;;;;;4.20;2.70;;;26.10;65.20;;;;;;4989206;28;20461;-80
2022/06/25 08:56:10;;;;;;;2.63;2.37;;;26.20;63.70;;;;;;4992718;28;20837;-79
2022/06/25 08:58:38;;;;;;;4.40;2.80;;;26.10;63.60;;;;;;4984109;28;20546;-80
2022/06/25 09:01:06;;;;;;;3.37;2.40;;;26.10;63.40;;;;;;4992716;28;20470;-79
2022/06/25 09:03:35;;;;;;;3.47;2.67;;;26.10;63.90;;;;;;4991425;28;20446;-78
2022/06/25 09:06:14;;;;;;;4.00;3.70;;;26.00;63.60;;;;;;4991510;28;20491;-79
2022/06/25 09:08:43;;;;;;;2.93;2.73;;;25.80;63.20;;;;;;4983584;28;20458;-81
2022/06/25 09:11:13;;;;;;;2.53;2.33;;;25.80;63.10;;;;;;4992101;28;20798;-80
2022/06/25 09:13:41;;;;;;;5.17;3.03;;;25.70;63.70;;;;;;4992525;28;20505;-82
2022/06/25 09:16:24;;;;;;;3.10;2.80;;;25.60;62.20;;;;;;4986710;28;20517;-83
2022/06/25 09:18:52;;;;;;;2.33;2.13;;;25.50;63.70;;;;;;4988859;28;20450;-79
2022/06/25 09:21:22;;;;;;;2.60;2.40;;;25.50;64.00;;;;;;4986469;28;20863;-79
2022/06/25 09:23:58;;;;;;;2.30;2.10;;;25.40;64.30;;;;;;4984111;28;20457;-80
2022/06/25 09:26:27;;;;;;;2.83;2.23;;;25.50;63.90;;;;;;5020271;28;20630;-79
2022/06/25 09:29:02;;;;;;;3.90;3.50;;;25.50;64.40;;;;;;4989182;28;20462;-79
2022/06/25 09:31:35;;;;;;;2.33;2.13;;;25.50;63.50;;;;;;4989443;28;20481;-80
2022/06/25 09:34:05;;;;;;;3.80;2.33;;;25.60;65.20;;;;;;4990929;28;20539;-79
2022/06/25 09:36:34;;;;;;;2.33;1.83;;;25.60;63.50;;;;;;4993929;28;20822;-78
2022/06/25 09:39:04;;;;;;;3.90;2.53;;;25.60;63.30;;;;;;4993849;28;20548;-79
2022/06/25 09:41:50;;;;;;;2.73;2.37;;;25.60;63.40;;;;;;4989085;28;20456;-80
2022/06/25 09:44:19;;;;;;;2.57;2.37;;;25.60;63.00;;;;;;4989335;28;20462;-78
2022/06/25 09:46:57;;;;;;;4.73;2.70;;;25.60;62.80;;;;;;4987445;28;20510;-79
2022/06/25 09:49:26;;;;;;;3.10;2.80;;;25.60;63.40;;;;;;4991060;28;20490;-79
2022/06/25 09:52:03;;;;;;;4.60;2.63;;;25.60;63.50;;;;;;4995108;28;20477;-78
2022/06/25 09:54:32;;;;;;;2.80;2.60;;;25.70;61.30;;;;;;4992192;28;20787;-79
2022/06/25 09:57:01;;;;;;;2.30;2.10;;;25.70;61.80;;;;;;4982068;28;20455;-77
2022/06/25 09:59:32;;;;;;;7.70;2.90;;;25.60;62.00;;;;;;4989421;28;20865;-80
2022/06/25 10:02:03;;;;;;;6.40;2.37;;;25.60;62.80;;;;;;4986026;28;20454;-79
2022/06/25 10:04:33;;;;;;;3.07;1.93;;;25.70;64.90;;;;;;4981618;28;20451;-80
2022/06/25 10:07:08;;;;;;;1.93;1.80;;;25.70;62.90;;;;;;4994627;28;20478;-78
2022/06/25 10:09:40;;;;;;;3.40;3.10;;;25.70;61.80;;;;;;4988609;28;20488;-80
2022/06/25 10:12:10;;;;;;;2.50;2.13;;;25.70;62.70;;;;;;4991457;28;20856;-79
2022/06/25 10:14:39;;;;;;;4.63;2.67;;;25.70;63.40;;;;;;4994169;28;20660;-80
2022/06/25 10:17:08;;;;;;;6.40;2.80;;;25.80;64.50;;;;;;4995764;28;20561;-79
2022/06/25 10:19:37;;;;;;;2.20;1.90;;;25.80;65.30;;;;;;4994036;28;20520;-77
2022/06/25 10:22:07;;;;;;;2.80;2.00;;;26.00;64.40;;;;;;4994692;28;21213;-79
2022/06/25 10:24:36;;;;;;;2.97;2.00;;;26.00;61.40;;;;;;4991972;28;20450;-77
2022/06/25 10:27:04;;;;;;;2.57;2.00;;;26.00;63.10;;;;;;4990663;28;20517;-77
2022/06/25 10:29:39;;;;;;;2.40;1.93;;;26.00;62.00;;;;;;4989789;28;20980;-81
2022/06/25 10:32:14;;;;;;;2.27;2.07;;;26.10;62.40;;;;;;4992639;28;20459;-82
2022/06/25 10:34:53;;;;;;;2.17;2.07;;;26.10;61.60;;;;;;4997958;28;20461;-79
2022/06/25 10:37:23;;;;;;;2.47;2.27;;;26.00;61.40;;;;;;5005001;28;20462;-78
2022/06/25 10:39:54;;;;;;;2.90;2.03;;;26.00;62.40;;;;;;5004297;28;20454;-78
2022/06/25 10:45:46;;;;;;;2.40;2.20;;;26.00;64.70;;;;;;4987822;28;20451;-77
2022/06/25 10:48:15;;;;;;;2.30;1.80;;;26.10;63.70;;;;;;5006229;28;20502;-80
2022/06/25 10:50:55;;;;;;;2.33;1.80;;;26.10;63.50;;;;;;5003091;28;20469;-81
2022/06/25 10:53:27;;;;;;;3.30;2.10;;;26.20;63.60;;;;;;4991850;28;20444;-80
2022/06/25 10:56:24;;;;;;;3.30;2.43;;;26.30;63.80;;;;;;4984866;28;20923;-79
2022/06/25 10:58:53;;;;;;;2.87;2.03;;;26.40;63.00;;;;;;4990474;28;20460;-80
2022/06/25 11:01:31;;;;;;;2.67;2.23;;;26.50;63.10;;;;;;4995037;28;20480;-79
2022/06/25 11:04:03;;;;;;;1.80;1.70;;;26.50;62.40;;;;;;4994557;28;20453;-80
2022/06/25 11:06:34;;;;;;;2.77;1.50;;;26.50;61.20;;;;;;4992929;28;20472;-79
2022/06/25 11:09:13;;;;;;;1.43;1.33;;;26.50;61.60;;;;;;4992738;28;20529;-79
2022/06/25 11:11:43;;;;;;;2.10;1.90;;;26.50;60.50;;;;;;4994152;28;20893;-80
2022/06/25 11:14:21;;;;;;;1.67;1.57;;;26.50;60.90;;;;;;4980185;28;20483;-80
2022/06/25 11:16:51;;;;;;;2.40;2.17;;;26.50;60.10;;;;;;4994075;28;20558;-80
2022/06/25 11:19:21;;;;;;;1.70;1.60;;;26.60;61.70;;;;;;4993895;28;20871;-78
2022/06/25 11:21:50;;;;;;;1.73;1.60;;;26.60;60.20;;;;;;4990588;28;20462;-80
2022/06/25 11:24:22;;;;;;;1.90;1.70;;;26.60;61.70;;;;;;4990751;28;20446;-79
2022/06/25 11:29:42;;;;;;;2.70;1.53;;;26.70;61.70;;;;;;4992288;28;20469;-80
2022/06/25 11:32:11;;;;;;;3.77;1.83;;;26.80;61.10;;;;;;5006331;28;20473;-79
2022/06/25 11:34:41;;;;;;;1.60;1.50;;;26.90;61.00;;;;;;4994096;28;20466;-80
2022/06/25 11:37:10;;;;;;;2.80;1.53;;;26.80;60.80;;;;;;4991207;28;20463;-81
2022/06/25 11:39:41;;;;;;;2.33;1.17;;;26.90;60.20;;;;;;4987356;28;20464;-80
2022/06/25 11:42:11;;;;;;;1.40;1.30;;;26.80;60.00;;;;;;4993978;28;20833;-81
2022/06/25 11:44:41;;;;;;;2.17;1.63;;;26.90;59.00;;;;;;4991248;28;20455;-81
2022/06/25 11:47:12;;;;;;;1.60;1.33;;;26.90;59.50;;;;;;4986839;28;20545;-80
2022/06/25 11:49:42;;;;;;;1.83;1.50;;;26.90;59.70;;;;;;4981558;28;20976;-81
2022/06/25 11:52:11;;;;;;;2.23;1.60;;;26.90;60.10;;;;;;4980024;28;20446;-81
2022/06/25 11:54:43;;;;;;;2.13;1.60;;;26.90;60.00;;;;;;4978486;28;20469;-81
2022/06/25 11:57:16;;;;;;;1.87;1.50;;;26.90;60.80;;;;;;4983555;28;20479;-80
2022/06/25 11:59:45;;;;;;;1.77;1.53;;;26.90;61.10;;;;;;4980264;28;20464;-81
2022/06/25 12:02:14;;;;;;;3.30;1.97;;;27.00;61.10;;;;;;4985413;28;20457;-80
2022/06/25 12:04:49;;;;;;;2.53;1.63;;;27.00;61.40;;;;;;4985205;28;20486;-85
2022/06/25 12:07:19;;;;;;;1.60;1.50;;;27.00;60.40;;;;;;4991504;28;20464;-80
2022/06/25 12:09:51;;;;;;;1.53;1.43;;;27.10;60.30;;;;;;4989105;28;20577;-79
2022/06/25 12:12:21;;;;;;;3.00;1.40;;;27.10;59.50;;;;;;4990354;28;20487;-80
2022/06/25 12:14:50;;;;;;;2.70;1.80;;;27.20;58.70;;;;;;4987012;28;20463;-82
2022/06/25 12:17:18;;;;;;;1.70;1.57;;;27.20;59.10;;;;;;4981625;28;20547;-81
2022/06/25 12:19:49;;;;;;;2.60;2.17;;;27.20;59.40;;;;;;4987294;28;20448;-80
2022/06/25 12:22:25;;;;;;;2.30;1.40;;;27.20;60.40;;;;;;4984714;28;20991;-79
2022/06/25 12:24:56;;;;;;;1.60;1.50;;;27.20;59.70;;;;;;4986815;28;20500;-78
2022/06/25 12:27:25;;;;;;;1.60;1.47;;;27.30;59.90;;;;;;4991585;28;20466;-79
2022/06/25 12:29:55;;;;;;;1.57;1.20;;;27.20;58.80;;;;;;4992831;28;20501;-79
2022/06/25 12:32:37;;;;;;;3.00;1.40;;;27.20;58.80;;;;;;4992012;28;20435;-79
2022/06/25 12:35:16;;;;;;;1.70;1.53;;;27.20;58.90;;;;;;4987703;28;20454;-80
2022/06/25 12:37:44;;;;;;;1.80;1.70;;;27.30;59.10;;;;;;4987039;28;20456;-80
2022/06/25 12:40:24;;;;;;;1.90;1.50;;;27.30;59.00;;;;;;4989729;28;20455;-79
2022/06/25 12:42:54;;;;;;;2.90;1.70;;;27.30;59.70;;;;;;4991020;28;20443;-80
2022/06/25 12:45:23;;;;;;;2.90;1.30;;;27.20;61.20;;;;;;4990831;28;20967;-80
2022/06/25 12:47:52;;;;;;;1.87;1.40;;;27.20;58.70;;;;;;4990091;28;20481;-81
2022/06/25 12:50:25;;;;;;;2.03;1.70;;;27.20;58.30;;;;;;4990435;28;20532;-81
2022/06/25 12:52:55;;;;;;;3.90;1.70;;;27.30;58.70;;;;;;4991347;28;20462;-82
2022/06/25 12:55:25;;;;;;;3.57;1.67;;;27.40;58.90;;;;;;4992109;28;20473;-81
2022/06/25 12:57:55;;;;;;;3.33;1.30;;;27.40;59.30;;;;;;4991939;28;20465;-82
2022/06/25 13:00:29;;;;;;;1.53;1.10;;;27.50;59.50;;;;;;4991747;28;20510;-80
2022/06/25 13:02:58;;;;;;;2.00;1.00;;;27.50;58.90;;;;;;4992068;28;21000;-80
2022/06/25 13:05:26;;;;;;;2.17;1.40;;;27.50;58.60;;;;;;4990057;28;20486;-81
2022/06/25 13:07:54;;;;;;;2.37;1.30;;;27.60;58.70;;;;;;4990937;28;20467;-81
2022/06/25 13:10:24;;;;;;;1.93;1.60;;;27.70;58.60;;;;;;4991521;28;20487;-80
2022/06/25 13:12:53;;;;;;;1.60;1.33;;;27.70;60.30;;;;;;5002124;28;20454;-80
2022/06/25 13:15:23;;;;;;;1.43;1.33;;;27.70;59.90;;;;;;5006639;28;20476;-81
2022/06/25 13:17:53;;;;;;;1.23;0.93;;;27.70;59.90;;;;;;4993194;28;20491;-81
2022/06/25 13:20:22;;;;;;;3.40;2.43;;;27.80;60.20;;;;;;4993028;28;20478;-80
2022/06/25 13:22:50;;;;;;;2.70;1.40;;;27.70;60.70;;;;;;4992951;28;20965;-80
2022/06/25 13:25:18;;;;;;;1.77;1.67;;;27.80;60.20;;;;;;4992907;28;20906;-80
2022/06/25 13:27:48;;;;;;;1.57;1.30;;;27.80;60.60;;;;;;4994166;28;20484;-80
2022/06/25 13:30:16;;;;;;;2.00;1.37;;;27.70;60.40;;;;;;5013162;28;20497;-80